createdAt,value
2023-02-23T00:00:32.632Z,43.40
2023-02-23T00:03:18.366Z,41.92
2023-02-23T00:06:04.652Z,44.15
2023-02-23T00:08:52.282Z,42.15
2023-02-23T00:11:38.098Z,42.88
2023-02-23T00:14:31.177Z,43.65
2023-02-23T00:17:18.902Z,44.08
2023-02-23T00:20:11.576Z,43.05
2023-02-23T00:22:58.202Z,42.17
2023-02-23T00:25:46.345Z,44.42
2023-02-23T00:28:32.057Z,44.97
2023-02-23T00:31:25.546Z,44.53
2023-02-23T00:34:13.584Z,43.83
2023-02-23T00:36:59.632Z,44.28
2023-02-23T00:39:45.963Z,42.10
2023-02-23T00:42:33.249Z,44.33
2023-02-23T00:45:20.650Z,43.05
2023-02-23T00:48:10.694Z,44.17
2023-02-23T00:51:00.110Z,43.10
2023-02-23T00:53:46.017Z,42.28
2023-02-23T00:56:31.692Z,42.63
2023-02-23T00:59:22.645Z,43.55
2023-02-23T01:02:08.300Z,41.60
2023-02-23T01:04:54.234Z,42.28
2023-02-23T01:07:40.354Z,43.05
2023-02-23T01:10:25.978Z,42.75
2023-02-23T01:13:11.647Z,43.60
2023-02-23T01:15:58.515Z,42.80
2023-02-23T01:18:45.903Z,42.17
2023-02-23T01:21:33.027Z,41.58
2023-02-23T01:24:18.547Z,43.58
2023-02-23T01:27:04.825Z,42.70
2023-02-23T01:29:50.542Z,42.85
2023-02-23T01:32:38.597Z,43.28
2023-02-23T01:35:24.222Z,41.70
2023-02-23T01:38:11.456Z,41.08
2023-02-23T01:40:57.100Z,42.40
2023-02-23T01:44:06.722Z,41.92
2023-02-23T01:46:54.421Z,42.97
2023-02-23T01:49:41.497Z,42.03
2023-02-23T01:52:27.544Z,41.28
2023-02-23T01:55:15.489Z,42.67
2023-02-23T01:58:06.977Z,42.45
2023-02-23T02:00:56.025Z,41.63
2023-02-23T02:03:47.068Z,42.92
2023-02-23T02:06:36.604Z,42.13
2023-02-23T02:09:25.631Z,41.65
2023-02-23T02:12:12.158Z,41.95
2023-02-23T02:15:00.045Z,41.70
2023-02-23T02:17:56.421Z,42.50
2023-02-23T02:21:17.250Z,42.38
2023-02-23T02:24:41.051Z,40.20
2023-02-23T02:27:43.707Z,41.15
2023-02-23T02:31:02.779Z,40.13
2023-02-23T02:34:18.254Z,40.40
2023-02-23T02:37:28.108Z,41.35
2023-02-23T02:40:22.461Z,42.38
2023-02-23T02:43:14.565Z,42.40
2023-02-23T02:46:07.746Z,40.70
2023-02-23T02:48:59.460Z,41.28
2023-02-23T02:51:53.231Z,41.35
2023-02-23T02:54:43.769Z,41.55
2023-02-23T02:57:32.863Z,40.92
2023-02-23T03:00:39.712Z,40.85
2023-02-23T03:03:53.565Z,42.40
2023-02-23T03:07:04.752Z,42.20
2023-02-23T03:10:17.040Z,41.28
2023-02-23T03:13:32.618Z,43.92
2023-02-23T03:16:44.644Z,41.13
2023-02-23T03:19:53.920Z,43.33
2023-02-23T03:23:06.166Z,40.92
2023-02-23T03:26:20.889Z,42.50
2023-02-23T03:29:31.242Z,42.50
2023-02-23T03:32:41.371Z,43.95
2023-02-23T03:35:54.104Z,41.17
2023-02-23T03:39:06.755Z,40.90
2023-02-23T03:42:16.009Z,42.50
2023-02-23T03:45:24.874Z,41.72
2023-02-23T03:48:32.124Z,41.92
2023-02-23T03:51:40.160Z,43.30
2023-02-23T03:54:53.001Z,43.00
2023-02-23T03:58:00.396Z,42.63
2023-02-23T04:01:07.898Z,42.97
2023-02-23T04:04:16.127Z,43.33
2023-02-23T04:07:22.270Z,43.38
2023-02-23T04:10:28.291Z,42.50
2023-02-23T04:13:19.630Z,41.22
2023-02-23T04:16:07.779Z,41.40
2023-02-23T04:18:54.759Z,40.78
2023-02-23T04:21:40.296Z,41.08
2023-02-23T04:24:25.954Z,41.13
2023-02-23T04:27:11.615Z,42.17
2023-02-23T04:29:58.897Z,42.33
2023-02-23T04:32:46.022Z,40.80
2023-02-23T04:35:32.127Z,41.55
2023-02-23T04:38:17.492Z,40.25
2023-02-23T04:41:03.307Z,42.22
2023-02-23T04:43:49.378Z,40.13
2023-02-23T04:46:36.300Z,40.67
2023-02-23T04:49:21.950Z,39.25
2023-02-23T04:52:07.992Z,39.58
2023-02-23T04:54:53.680Z,38.33
2023-02-23T04:57:39.240Z,37.65
2023-02-23T05:00:25.189Z,38.95
2023-02-23T05:03:12.255Z,38.30
2023-02-23T05:05:57.887Z,37.53
2023-02-23T05:08:43.533Z,37.33
2023-02-23T05:11:29.616Z,36.75
2023-02-23T05:14:15.286Z,39.08
2023-02-23T05:17:00.927Z,40.05
2023-02-23T05:19:48.016Z,38.22
2023-02-23T05:22:33.849Z,41.05
2023-02-23T05:25:19.700Z,39.38
2023-02-23T05:28:05.575Z,38.40
2023-02-23T05:30:51.186Z,36.33
2023-02-23T05:33:42.684Z,41.13
2023-02-23T05:36:30.078Z,41.55
2023-02-23T05:39:15.394Z,42.22
2023-02-23T05:42:00.944Z,43.67
2023-02-23T05:44:46.552Z,51.88
2023-02-23T05:47:32.467Z,51.15
2023-02-23T05:50:18.447Z,51.85
2023-02-23T05:53:05.588Z,44.40
2023-02-23T05:55:52.214Z,41.35
2023-02-23T05:58:38.040Z,38.13
2023-02-23T06:01:25.110Z,37.97
2023-02-23T06:04:10.408Z,37.95
2023-02-23T06:06:56.309Z,38.63
2023-02-23T06:09:44.600Z,38.33
2023-02-23T06:12:30.592Z,39.03
2023-02-23T06:15:16.227Z,39.50
2023-02-23T06:18:01.570Z,37.20
2023-02-23T06:20:47.279Z,38.33
2023-02-23T06:23:33.647Z,37.72
2023-02-23T06:26:20.657Z,37.40
2023-02-23T06:29:06.574Z,37.28
2023-02-23T06:31:52.277Z,36.97
2023-02-23T06:34:38.255Z,38.72
2023-02-23T06:37:24.374Z,37.47
2023-02-23T06:40:11.435Z,38.60
2023-02-23T06:43:06.263Z,39.50
2023-02-23T06:45:52.278Z,37.78
2023-02-23T06:48:38.260Z,39.20
2023-02-23T06:51:24.013Z,36.25
2023-02-23T06:54:09.884Z,38.30
2023-02-23T06:56:56.764Z,40.10
2023-02-23T06:59:43.986Z,38.47
2023-02-23T07:02:30.142Z,35.97
2023-02-23T07:05:16.300Z,36.35
2023-02-23T07:08:02.186Z,35.78
2023-02-23T07:10:47.733Z,36.33
2023-02-23T07:13:33.374Z,36.92
2023-02-23T07:16:20.317Z,42.67
2023-02-23T07:19:07.007Z,43.28
2023-02-23T07:21:53.542Z,39.90
2023-02-23T07:24:39.680Z,39.17
2023-02-23T07:27:25.850Z,39.45
2023-02-23T07:30:12.984Z,36.33
2023-02-23T07:33:00.383Z,37.60
2023-02-23T07:35:46.356Z,35.55
2023-02-23T07:38:32.242Z,36.38
2023-02-23T07:41:18.410Z,37.45
2023-02-23T07:44:04.532Z,36.08
2023-02-23T07:46:50.592Z,36.42
2023-02-23T07:49:37.671Z,36.28
2023-02-23T07:52:23.152Z,36.15
2023-02-23T07:55:10.290Z,35.08
2023-02-23T07:57:57.107Z,36.47
2023-02-23T08:00:43.047Z,36.90
2023-02-23T08:03:28.966Z,38.30
2023-02-23T08:06:16.605Z,36.25
2023-02-23T08:09:04.009Z,35.45
2023-02-23T08:11:49.621Z,35.40
2023-02-23T08:14:35.336Z,36.35
2023-02-23T08:17:21.123Z,37.30
2023-02-23T08:20:08.746Z,37.90
2023-02-23T08:22:56.612Z,36.03
2023-02-23T08:25:42.806Z,36.38
2023-02-23T08:28:29.531Z,37.67
2023-02-23T08:31:18.708Z,36.53
2023-02-23T08:34:04.726Z,36.83
2023-02-23T08:36:50.542Z,39.03
2023-02-23T08:39:37.970Z,36.80
2023-02-23T08:42:23.667Z,36.08
2023-02-23T08:45:10.587Z,37.13
2023-02-23T08:47:56.775Z,37.55
2023-02-23T08:50:42.624Z,35.95
2023-02-23T08:53:29.820Z,35.20
2023-02-23T08:56:17.337Z,36.03
2023-02-23T08:59:03.274Z,34.20
2023-02-23T09:01:49.238Z,34.72
2023-02-23T09:04:35.421Z,36.33
2023-02-23T09:07:23.244Z,36.88
2023-02-23T09:10:11.645Z,37.80
2023-02-23T09:12:58.641Z,36.53
2023-02-23T09:15:44.386Z,37.13
2023-02-23T09:18:30.686Z,37.15
2023-02-23T09:21:22.409Z,34.63
2023-02-23T09:24:08.089Z,34.63
2023-02-23T09:26:53.823Z,34.05
2023-02-23T09:29:44.486Z,32.85
2023-02-23T09:32:30.642Z,32.47
2023-02-23T09:35:17.952Z,35.22
2023-02-23T09:38:05.651Z,33.08
2023-02-23T09:40:53.634Z,32.03
2023-02-23T09:43:45.027Z,30.23
2023-02-23T09:46:40.378Z,30.92
2023-02-23T09:49:30.932Z,30.80
2023-02-23T09:52:20.039Z,37.30
2023-02-23T09:55:07.159Z,30.30
2023-02-23T09:57:56.906Z,28.48
2023-02-23T10:00:46.255Z,28.30
2023-02-23T10:03:37.664Z,27.55
2023-02-23T10:06:23.764Z,28.48
2023-02-23T10:09:19.449Z,26.60
2023-02-23T10:12:10.261Z,26.95
2023-02-23T10:15:10.402Z,27.80
2023-02-23T10:18:05.216Z,27.40
2023-02-23T10:20:59.667Z,27.17
2023-02-23T10:23:51.066Z,25.30
2023-02-23T10:26:44.187Z,26.10
2023-02-23T10:29:34.343Z,26.25
2023-02-23T10:32:24.499Z,24.60
2023-02-23T10:35:12.796Z,24.48
2023-02-23T10:38:01.430Z,22.83
2023-02-23T10:40:56.087Z,23.30
2023-02-23T10:43:42.254Z,22.35
2023-02-23T10:46:36.638Z,22.73
2023-02-23T10:49:26.372Z,22.75
2023-02-23T10:52:14.786Z,22.60
2023-02-23T10:55:05.690Z,21.48
2023-02-23T10:58:02.566Z,23.67
2023-02-23T11:00:54.891Z,22.17
2023-02-23T11:03:43.268Z,23.48
2023-02-23T11:06:32.559Z,21.65
2023-02-23T11:09:37.109Z,19.88
2023-02-23T11:12:38.019Z,19.42
2023-02-23T11:15:46.477Z,19.83
2023-02-23T11:18:34.720Z,18.75
2023-02-23T11:21:24.361Z,20.38
2023-02-23T11:24:19.245Z,18.55
2023-02-23T11:27:07.347Z,22.38
2023-02-23T11:29:57.636Z,25.08
2023-02-23T11:32:44.008Z,18.45
2023-02-23T11:35:31.621Z,18.48
2023-02-23T11:38:24.401Z,18.08
2023-02-23T11:41:21.183Z,17.48
2023-02-23T11:44:18.478Z,18.05
2023-02-23T11:47:05.360Z,19.00
2023-02-23T11:49:51.744Z,17.77
2023-02-23T11:52:37.210Z,17.60
2023-02-23T11:55:25.513Z,18.05
2023-02-23T11:58:23.209Z,17.63
2023-02-23T12:01:13.409Z,17.40
2023-02-23T12:04:00.591Z,18.25
2023-02-23T12:06:46.468Z,17.58
2023-02-23T12:09:34.936Z,18.00
2023-02-23T12:12:23.278Z,18.58
2023-02-23T12:15:19.734Z,19.00
2023-02-23T12:18:14.337Z,21.17
2023-02-23T12:21:16.936Z,18.30
2023-02-23T12:24:25.882Z,15.80
2023-02-23T12:27:16.017Z,14.90
2023-02-23T12:30:09.774Z,15.30
2023-02-23T12:33:00.262Z,16.17
2023-02-23T12:35:54.392Z,15.38
2023-02-23T12:38:49.423Z,14.10
2023-02-23T12:41:40.460Z,14.68
2023-02-23T12:44:37.352Z,13.10
2023-02-23T12:47:30.943Z,13.13
2023-02-23T12:50:26.363Z,12.45
2023-02-23T12:53:19.848Z,12.23
2023-02-23T12:56:21.170Z,12.45
2023-02-23T13:02:16.447Z,10.85
2023-02-23T13:05:19.008Z,11.88
2023-02-23T13:08:20.674Z,11.23
2023-02-23T13:11:16.967Z,12.77
2023-02-23T13:14:13.403Z,15.38
2023-02-23T13:17:05.628Z,12.77
2023-02-23T13:19:55.433Z,11.85
2023-02-23T13:22:47.616Z,12.57
2023-02-23T13:25:40.036Z,12.05
2023-02-23T13:28:39.039Z,12.45
2023-02-23T13:31:29.315Z,11.73
2023-02-23T13:34:25.484Z,11.68
2023-02-23T13:37:15.375Z,11.60
2023-02-23T13:40:19.929Z,12.68
2023-02-23T13:43:17.602Z,11.85
2023-02-23T13:46:28.651Z,10.98
2023-02-23T13:49:28.807Z,9.70
2023-02-23T13:52:31.058Z,10.23
2023-02-23T13:55:49.966Z,10.70
2023-02-23T13:58:36.814Z,8.45
2023-02-23T14:01:31.287Z,11.02
2023-02-23T14:04:22.505Z,8.70
2023-02-23T14:07:19.235Z,8.25
2023-02-23T14:10:09.092Z,7.72
2023-02-23T14:13:07.311Z,6.95
2023-02-23T14:16:09.326Z,7.22
2023-02-23T14:19:10.255Z,7.68
2023-02-23T14:22:01.113Z,7.07
2023-02-23T14:24:46.868Z,7.50
2023-02-23T14:27:43.878Z,7.53
2023-02-23T14:30:43.293Z,10.55
2023-02-23T14:33:37.787Z,8.25
2023-02-23T14:36:37.708Z,7.55
2023-02-23T14:39:26.129Z,8.65
2023-02-23T14:42:21.143Z,8.52
2023-02-23T14:45:20.112Z,9.13
2023-02-23T14:48:09.857Z,9.57
2023-02-23T14:51:19.481Z,9.70
2023-02-23T14:54:31.758Z,9.68
2023-02-23T14:57:22.370Z,9.68
2023-02-23T15:00:16.613Z,10.18
2023-02-23T15:03:04.368Z,9.57
2023-02-23T15:05:54.559Z,8.95
2023-02-23T15:08:45.429Z,9.55
2023-02-23T15:11:33.236Z,9.48
2023-02-23T15:14:27.616Z,11.15
2023-02-23T15:17:21.334Z,10.82
2023-02-23T15:20:16.549Z,9.75
2023-02-23T15:23:04.765Z,9.95
2023-02-23T15:25:51.921Z,10.75
2023-02-23T15:28:41.228Z,11.57
2023-02-23T15:31:30.671Z,10.02
2023-02-23T15:34:20.290Z,11.65
2023-02-23T15:37:13.490Z,11.25
2023-02-23T15:40:02.454Z,11.55
2023-02-23T15:42:50.082Z,11.20
2023-02-23T15:45:42.845Z,12.50
2023-02-23T15:48:40.557Z,13.43
2023-02-23T15:51:34.079Z,14.25
2023-02-23T15:54:24.285Z,11.98
2023-02-23T15:57:19.623Z,12.18
2023-02-23T16:00:17.126Z,12.45
2023-02-23T16:03:06.881Z,12.50
2023-02-23T16:06:00.001Z,13.00
2023-02-23T16:08:56.861Z,13.60
2023-02-23T16:11:42.706Z,13.77
2023-02-23T16:14:34.435Z,15.80
2023-02-23T16:17:28.382Z,16.48
2023-02-23T16:20:20.084Z,18.30
2023-02-23T16:23:08.378Z,18.33
2023-02-23T16:25:59.065Z,20.63
2023-02-23T16:28:46.525Z,17.65
2023-02-23T16:31:44.565Z,10.60
2023-02-23T16:34:37.307Z,6.80
2023-02-23T16:37:31.484Z,6.65
2023-02-23T16:40:18.083Z,6.18
2023-02-23T16:43:04.466Z,5.72
2023-02-23T16:45:50.350Z,5.38
2023-02-23T16:48:36.833Z,6.07
2023-02-23T16:51:23.911Z,4.40
2023-02-23T16:54:11.853Z,4.43
2023-02-23T16:57:00.737Z,4.45
2023-02-23T16:59:50.597Z,4.00
2023-02-23T17:02:36.837Z,4.22
2023-02-23T17:05:24.641Z,5.20
2023-02-23T17:08:13.658Z,5.88
2023-02-23T17:11:04.738Z,5.53
2023-02-23T17:13:50.537Z,6.47
2023-02-23T17:16:37.425Z,7.55
2023-02-23T17:19:25.729Z,7.10
2023-02-23T17:22:13.019Z,6.38
2023-02-23T17:24:59.192Z,6.57
2023-02-23T17:27:51.209Z,6.82
2023-02-23T17:30:39.250Z,6.47
2023-02-23T17:33:28.520Z,5.80
2023-02-23T17:36:18.848Z,5.57
2023-02-23T17:39:08.447Z,5.78
2023-02-23T17:41:54.918Z,5.63
2023-02-23T17:44:42.176Z,8.52
2023-02-23T17:47:30.680Z,8.38
2023-02-23T17:50:19.998Z,5.90
2023-02-23T17:53:06.142Z,10.85
2023-02-23T17:55:52.312Z,9.40
2023-02-23T17:58:39.410Z,8.23
2023-02-23T18:01:26.529Z,5.50
2023-02-23T18:04:12.218Z,5.68
2023-02-23T18:06:59.358Z,5.82
2023-02-23T18:09:47.288Z,4.32
2023-02-23T18:12:33.090Z,4.68
2023-02-23T18:15:20.584Z,4.05
2023-02-23T18:18:07.845Z,3.35
2023-02-23T18:20:55.969Z,3.70
2023-02-23T18:23:42.550Z,5.40
2023-02-23T18:26:28.322Z,4.15
2023-02-23T18:29:14.196Z,4.15
2023-02-23T18:32:01.758Z,4.05
2023-02-23T18:34:49.470Z,4.05
2023-02-23T18:37:34.803Z,3.63
2023-02-23T18:40:23.932Z,6.88
2023-02-23T18:43:10.990Z,4.22
2023-02-23T18:45:57.587Z,3.72
2023-02-23T18:48:43.314Z,4.47
2023-02-23T18:51:30.468Z,6.03
2023-02-23T18:54:18.957Z,3.85
2023-02-23T18:57:05.734Z,5.00
2023-02-23T18:59:51.824Z,3.42
2023-02-23T19:02:37.823Z,9.25
2023-02-23T19:05:23.903Z,3.90
2023-02-23T19:08:13.527Z,3.60
2023-02-23T19:10:59.484Z,4.05
2023-02-23T19:13:45.021Z,3.97
2023-02-23T19:16:32.055Z,3.97
2023-02-23T19:19:19.354Z,4.28
2023-02-23T19:22:05.256Z,6.00
2023-02-23T19:24:52.776Z,5.40
2023-02-23T19:27:41.269Z,4.50
2023-02-23T19:30:26.925Z,4.70
2023-02-23T19:33:15.449Z,4.93
2023-02-23T19:36:05.327Z,4.80
2023-02-23T19:38:51.334Z,4.22
2023-02-23T19:41:40.137Z,4.70
2023-02-23T19:44:26.012Z,3.72
2023-02-23T19:47:12.117Z,4.38
2023-02-23T19:49:57.640Z,8.90
2023-02-23T19:52:45.247Z,7.15
2023-02-23T19:55:30.969Z,5.35
2023-02-23T19:58:18.440Z,9.98
2023-02-23T20:01:04.764Z,15.55
2023-02-23T20:03:56.791Z,8.38
2023-02-23T20:06:47.340Z,7.50
2023-02-23T20:09:35.209Z,12.32
2023-02-23T20:12:20.892Z,7.20
2023-02-23T20:15:09.774Z,8.93
2023-02-23T20:17:55.723Z,7.13
2023-02-23T20:20:44.008Z,11.82
2023-02-23T20:23:29.700Z,12.13
2023-02-23T20:26:18.042Z,9.30
2023-02-23T20:29:10.890Z,8.35
2023-02-23T20:31:59.883Z,8.38
2023-02-23T20:34:48.916Z,8.15
2023-02-23T20:37:35.054Z,8.52
2023-02-23T20:40:23.220Z,8.68
2023-02-23T20:46:01.664Z,8.65
2023-02-23T20:48:49.265Z,8.68
2023-02-23T20:51:35.051Z,9.38
2023-02-23T20:54:21.204Z,9.18
2023-02-23T20:57:10.170Z,8.48
2023-02-23T20:59:58.159Z,8.00
2023-02-23T21:02:43.956Z,7.82
2023-02-23T21:05:33.168Z,6.65
2023-02-23T21:08:20.497Z,7.03
2023-02-23T21:11:07.867Z,7.00
2023-02-23T21:13:54.475Z,6.05
2023-02-23T21:16:45.141Z,8.10
2023-02-23T21:19:31.232Z,8.20
2023-02-23T21:22:18.455Z,6.72
2023-02-23T21:25:05.092Z,6.90
2023-02-23T21:27:51.199Z,7.03
2023-02-23T21:30:37.301Z,6.45
2023-02-23T21:33:22.674Z,7.18
2023-02-23T21:36:10.815Z,7.25
2023-02-23T21:38:58.372Z,6.57
2023-02-23T21:41:44.285Z,6.68
2023-02-23T21:44:30.540Z,6.90
2023-02-23T21:47:16.408Z,7.05
2023-02-23T21:50:02.729Z,6.35
2023-02-23T21:52:50.387Z,7.38
2023-02-23T21:55:38.757Z,6.93
2023-02-23T21:58:24.767Z,6.75
2023-02-23T22:01:11.691Z,8.45
2023-02-23T22:03:58.282Z,8.93
2023-02-23T22:06:44.680Z,8.65
2023-02-23T22:09:30.359Z,9.27
2023-02-23T22:12:17.588Z,7.85
2023-02-23T22:15:06.801Z,6.45
2023-02-23T22:17:52.456Z,6.05
2023-02-23T22:20:38.571Z,6.22
2023-02-23T22:23:24.160Z,5.68
2023-02-23T22:26:10.604Z,5.70
2023-02-23T22:28:57.648Z,5.53
2023-02-23T22:31:43.319Z,4.55
2023-02-23T22:34:29.447Z,4.70
2023-02-23T22:37:15.537Z,4.38
2023-02-23T22:40:01.640Z,4.63
2023-02-23T22:42:50.198Z,4.05
2023-02-23T22:45:38.084Z,3.42
2023-02-23T22:48:24.358Z,4.18
2023-02-23T22:51:11.330Z,3.97
2023-02-23T22:53:57.072Z,4.13
2023-02-23T22:56:42.749Z,4.47
2023-02-23T22:59:30.422Z,4.45
2023-02-23T23:02:17.904Z,4.22
2023-02-23T23:05:04.366Z,3.97
2023-02-23T23:07:49.798Z,3.83
2023-02-23T23:10:35.222Z,3.75
2023-02-23T23:13:20.831Z,3.95
2023-02-23T23:16:28.838Z,3.70
2023-02-23T23:19:23.825Z,3.90
2023-02-23T23:22:13.550Z,3.42
2023-02-23T23:24:58.768Z,4.07
2023-02-23T23:27:47.629Z,3.78
2023-02-23T23:30:35.195Z,3.65
2023-02-23T23:33:20.877Z,4.18
2023-02-23T23:36:10.106Z,3.90
2023-02-23T23:38:56.587Z,3.45
2023-02-23T23:41:43.100Z,3.85
2023-02-23T23:44:29.083Z,3.50
2023-02-23T23:47:15.231Z,3.58
2023-02-23T23:50:02.680Z,4.22
2023-02-23T23:52:50.501Z,3.85
2023-02-23T23:55:36.370Z,3.97
2023-02-23T23:58:21.931Z,3.47
